sensor_id;sensor_type;location;lat;lon;timestamp;P1;durP1;ratioP1;P2;durP2;ratioP2
14001;SDS011;7076;51.280;12.584;2022-07-29T00:01:56;4.60;;;1.38;;
14001;SDS011;7076;51.280;12.584;2022-07-29T00:06:59;4.18;;;1.63;;
14001;SDS011;7076;51.280;12.584;2022-07-29T00:12:04;3.33;;;1.23;;
14001;SDS011;7076;51.280;12.584;2022-07-29T00:17:10;2.92;;;1.80;;
14001;SDS011;7076;51.280;12.584;2022-07-29T00:22:19;2.83;;;1.38;;
14001;SDS011;7076;51.280;12.584;2022-07-29T00:27:23;1.70;;;1.20;;
14001;SDS011;7076;51.280;12.584;2022-07-29T00:32:26;4.35;;;1.30;;
14001;SDS011;7076;51.280;12.584;2022-07-29T00:37:29;3.22;;;1.55;;
14001;SDS011;7076;51.280;12.584;2022-07-29T00:42:42;3.90;;;1.42;;
14001;SDS011;7076;51.280;12.584;2022-07-29T00:47:45;2.40;;;1.50;;
14001;SDS011;7076;51.280;12.584;2022-07-29T00:52:48;3.55;;;1.60;;
14001;SDS011;7076;51.280;12.584;2022-07-29T00:57:52;4.90;;;1.70;;
14001;SDS011;7076;51.280;12.584;2022-07-29T01:02:56;4.93;;;1.50;;
14001;SDS011;7076;51.280;12.584;2022-07-29T01:07:58;3.50;;;1.70;;
14001;SDS011;7076;51.280;12.584;2022-07-29T01:13:04;2.60;;;1.48;;
14001;SDS011;7076;51.280;12.584;2022-07-29T01:18:11;4.13;;;2.00;;
14001;SDS011;7076;51.280;12.584;2022-07-29T01:28:54;2.53;;;1.30;;
14001;SDS011;7076;51.280;12.584;2022-07-29T01:34:08;4.28;;;1.48;;
14001;SDS011;7076;51.280;12.584;2022-07-29T01:39:17;3.90;;;1.27;;
14001;SDS011;7076;51.280;12.584;2022-07-29T01:44:26;2.90;;;1.42;;
14001;SDS011;7076;51.280;12.584;2022-07-29T01:49:34;3.35;;;1.55;;
14001;SDS011;7076;51.280;12.584;2022-07-29T01:54:39;3.00;;;1.38;;
14001;SDS011;7076;51.280;12.584;2022-07-29T01:59:48;3.63;;;1.20;;
14001;SDS011;7076;51.280;12.584;2022-07-29T02:04:52;2.95;;;1.40;;
14001;SDS011;7076;51.280;12.584;2022-07-29T02:09:55;5.82;;;1.45;;
14001;SDS011;7076;51.280;12.584;2022-07-29T02:15:02;4.32;;;1.45;;
14001;SDS011;7076;51.280;12.584;2022-07-29T02:20:06;2.00;;;1.13;;
14001;SDS011;7076;51.280;12.584;2022-07-29T02:25:10;2.90;;;1.35;;
14001;SDS011;7076;51.280;12.584;2022-07-29T02:30:16;3.30;;;1.35;;
14001;SDS011;7076;51.280;12.584;2022-07-29T02:35:19;4.88;;;1.48;;
14001;SDS011;7076;51.280;12.584;2022-07-29T02:40:23;3.38;;;1.10;;
14001;SDS011;7076;51.280;12.584;2022-07-29T02:45:27;2.55;;;1.10;;
14001;SDS011;7076;51.280;12.584;2022-07-29T02:50:32;4.38;;;1.20;;
14001;SDS011;7076;51.280;12.584;2022-07-29T02:55:38;1.50;;;1.05;;
14001;SDS011;7076;51.280;12.584;2022-07-29T03:00:44;4.78;;;1.25;;
14001;SDS011;7076;51.280;12.584;2022-07-29T03:05:49;3.22;;;1.13;;
14001;SDS011;7076;51.280;12.584;2022-07-29T03:10:54;2.53;;;1.40;;
14001;SDS011;7076;51.280;12.584;2022-07-29T03:15:59;3.85;;;1.70;;
14001;SDS011;7076;51.280;12.584;2022-07-29T03:21:05;5.05;;;1.35;;
14001;SDS011;7076;51.280;12.584;2022-07-29T03:26:08;2.13;;;1.38;;
14001;SDS011;7076;51.280;12.584;2022-07-29T03:31:12;2.75;;;1.80;;
14001;SDS011;7076;51.280;12.584;2022-07-29T03:36:15;2.95;;;1.35;;
14001;SDS011;7076;51.280;12.584;2022-07-29T03:41:19;2.13;;;1.20;;
14001;SDS011;7076;51.280;12.584;2022-07-29T03:46:24;2.55;;;1.45;;
14001;SDS011;7076;51.280;12.584;2022-07-29T03:51:29;1.92;;;1.38;;
14001;SDS011;7076;51.280;12.584;2022-07-29T03:56:36;3.53;;;1.38;;
14001;SDS011;7076;51.280;12.584;2022-07-29T04:01:42;2.83;;;1.35;;
14001;SDS011;7076;51.280;12.584;2022-07-29T04:06:46;3.53;;;1.40;;
14001;SDS011;7076;51.280;12.584;2022-07-29T04:11:49;2.42;;;1.10;;
14001;SDS011;7076;51.280;12.584;2022-07-29T04:17:05;2.00;;;1.10;;
14001;SDS011;7076;51.280;12.584;2022-07-29T04:22:08;2.35;;;1.40;;
14001;SDS011;7076;51.280;12.584;2022-07-29T04:27:11;1.55;;;1.30;;
14001;SDS011;7076;51.280;12.584;2022-07-29T04:32:15;2.05;;;0.98;;
14001;SDS011;7076;51.280;12.584;2022-07-29T04:37:18;2.88;;;1.17;;
14001;SDS011;7076;51.280;12.584;2022-07-29T04:42:20;1.52;;;1.13;;
14001;SDS011;7076;51.280;12.584;2022-07-29T04:47:29;2.22;;;1.30;;
14001;SDS011;7076;51.280;12.584;2022-07-29T04:52:32;2.97;;;0.80;;
14001;SDS011;7076;51.280;12.584;2022-07-29T04:57:35;1.25;;;0.73;;
14001;SDS011;7076;51.280;12.584;2022-07-29T05:02:40;3.97;;;1.52;;
14001;SDS011;7076;51.280;12.584;2022-07-29T05:07:43;1.08;;;0.82;;
14001;SDS011;7076;51.280;12.584;2022-07-29T05:12:46;2.30;;;1.00;;
14001;SDS011;7076;51.280;12.584;2022-07-29T05:17:50;3.15;;;1.15;;
14001;SDS011;7076;51.280;12.584;2022-07-29T05:22:53;2.22;;;1.10;;
14001;SDS011;7076;51.280;12.584;2022-07-29T05:27:56;2.13;;;1.00;;
14001;SDS011;7076;51.280;12.584;2022-07-29T05:33:01;2.90;;;1.20;;
14001;SDS011;7076;51.280;12.584;2022-07-29T05:38:04;5.15;;;1.17;;
14001;SDS011;7076;51.280;12.584;2022-07-29T05:43:07;6.50;;;1.00;;
14001;SDS011;7076;51.280;12.584;2022-07-29T05:48:12;2.47;;;0.95;;
14001;SDS011;7076;51.280;12.584;2022-07-29T05:53:14;3.03;;;1.00;;
14001;SDS011;7076;51.280;12.584;2022-07-29T05:58:20;4.47;;;1.00;;
14001;SDS011;7076;51.280;12.584;2022-07-29T06:03:24;2.35;;;1.20;;
14001;SDS011;7076;51.280;12.584;2022-07-29T06:08:30;2.35;;;1.00;;
14001;SDS011;7076;51.280;12.584;2022-07-29T06:13:35;2.38;;;1.20;;
14001;SDS011;7076;51.280;12.584;2022-07-29T06:18:39;3.20;;;1.00;;
14001;SDS011;7076;51.280;12.584;2022-07-29T06:23:42;2.58;;;1.15;;
14001;SDS011;7076;51.280;12.584;2022-07-29T06:28:45;2.65;;;1.15;;
14001;SDS011;7076;51.280;12.584;2022-07-29T06:33:51;2.70;;;1.15;;
14001;SDS011;7076;51.280;12.584;2022-07-29T06:38:55;1.52;;;1.10;;
14001;SDS011;7076;51.280;12.584;2022-07-29T06:43:59;2.03;;;1.20;;
14001;SDS011;7076;51.280;12.584;2022-07-29T06:49:10;6.30;;;1.52;;
14001;SDS011;7076;51.280;12.584;2022-07-29T06:54:14;4.53;;;1.58;;
14001;SDS011;7076;51.280;12.584;2022-07-29T06:59:18;5.05;;;2.40;;
14001;SDS011;7076;51.280;12.584;2022-07-29T07:04:32;4.40;;;2.05;;
14001;SDS011;7076;51.280;12.584;2022-07-29T07:09:35;2.95;;;2.20;;
14001;SDS011;7076;51.280;12.584;2022-07-29T07:14:41;4.75;;;2.20;;
14001;SDS011;7076;51.280;12.584;2022-07-29T07:20:04;6.40;;;2.10;;
14001;SDS011;7076;51.280;12.584;2022-07-29T07:25:09;5.05;;;1.85;;
14001;SDS011;7076;51.280;12.584;2022-07-29T07:30:12;5.18;;;2.75;;
14001;SDS011;7076;51.280;12.584;2022-07-29T07:35:16;5.85;;;2.22;;
14001;SDS011;7076;51.280;12.584;2022-07-29T07:40:19;3.50;;;2.00;;
14001;SDS011;7076;51.280;12.584;2022-07-29T07:45:22;7.78;;;1.92;;
14001;SDS011;7076;51.280;12.584;2022-07-29T07:50:27;5.25;;;2.42;;
14001;SDS011;7076;51.280;12.584;2022-07-29T07:55:29;4.72;;;1.80;;
14001;SDS011;7076;51.280;12.584;2022-07-29T08:00:52;9.57;;;2.00;;
14001;SDS011;7076;51.280;12.584;2022-07-29T08:05:57;7.15;;;2.20;;
14001;SDS011;7076;51.280;12.584;2022-07-29T08:11:00;5.93;;;1.88;;
14001;SDS011;7076;51.280;12.584;2022-07-29T08:16:10;2.75;;;1.73;;
14001;SDS011;7076;51.280;12.584;2022-07-29T08:21:18;7.25;;;2.10;;
14001;SDS011;7076;51.280;12.584;2022-07-29T08:26:21;7.50;;;2.35;;
14001;SDS011;7076;51.280;12.584;2022-07-29T08:31:24;6.35;;;3.00;;
14001;SDS011;7076;51.280;12.584;2022-07-29T08:36:29;3.78;;;2.67;;
14001;SDS011;7076;51.280;12.584;2022-07-29T08:41:32;7.25;;;3.60;;
14001;SDS011;7076;51.280;12.584;2022-07-29T08:46:36;5.30;;;3.30;;
14001;SDS011;7076;51.280;12.584;2022-07-29T08:51:41;4.85;;;3.75;;
14001;SDS011;7076;51.280;12.584;2022-07-29T08:56:50;7.70;;;4.05;;
14001;SDS011;7076;51.280;12.584;2022-07-29T09:01:57;4.70;;;3.45;;
14001;SDS011;7076;51.280;12.584;2022-07-29T09:07:03;7.50;;;4.28;;
14001;SDS011;7076;51.280;12.584;2022-07-29T09:12:07;5.65;;;3.63;;
14001;SDS011;7076;51.280;12.584;2022-07-29T09:17:13;4.60;;;3.08;;
14001;SDS011;7076;51.280;12.584;2022-07-29T09:22:28;7.32;;;3.03;;
14001;SDS011;7076;51.280;12.584;2022-07-29T09:27:31;4.60;;;2.55;;
14001;SDS011;7076;51.280;12.584;2022-07-29T09:32:35;5.97;;;2.80;;
14001;SDS011;7076;51.280;12.584;2022-07-29T09:37:58;4.03;;;1.98;;
14001;SDS011;7076;51.280;12.584;2022-07-29T09:43:12;6.55;;;2.03;;
14001;SDS011;7076;51.280;12.584;2022-07-29T09:48:16;2.90;;;1.95;;
14001;SDS011;7076;51.280;12.584;2022-07-29T09:53:31;2.58;;;1.77;;
14001;SDS011;7076;51.280;12.584;2022-07-29T09:58:35;10.20;;;2.13;;
14001;SDS011;7076;51.280;12.584;2022-07-29T10:03:49;5.38;;;1.85;;
14001;SDS011;7076;51.280;12.584;2022-07-29T10:08:54;5.25;;;1.92;;
14001;SDS011;7076;51.280;12.584;2022-07-29T10:13:57;3.63;;;1.90;;
14001;SDS011;7076;51.280;12.584;2022-07-29T10:19:00;3.80;;;2.03;;
14001;SDS011;7076;51.280;12.584;2022-07-29T10:24:05;3.92;;;1.60;;
14001;SDS011;7076;51.280;12.584;2022-07-29T10:29:15;3.80;;;1.85;;
14001;SDS011;7076;51.280;12.584;2022-07-29T10:34:20;4.32;;;1.90;;
14001;SDS011;7076;51.280;12.584;2022-07-29T10:39:31;2.47;;;1.92;;
14001;SDS011;7076;51.280;12.584;2022-07-29T10:44:45;4.88;;;2.55;;
14001;SDS011;7076;51.280;12.584;2022-07-29T10:49:55;3.03;;;2.20;;
14001;SDS011;7076;51.280;12.584;2022-07-29T10:55:03;4.70;;;2.10;;
14001;SDS011;7076;51.280;12.584;2022-07-29T11:00:26;4.05;;;2.45;;
14001;SDS011;7076;51.280;12.584;2022-07-29T11:05:30;4.10;;;1.95;;
14001;SDS011;7076;51.280;12.584;2022-07-29T11:17:01;3.10;;;1.98;;
14001;SDS011;7076;51.280;12.584;2022-07-29T11:22:07;6.85;;;2.40;;
14001;SDS011;7076;51.280;12.584;2022-07-29T11:27:16;5.03;;;2.58;;
14001;SDS011;7076;51.280;12.584;2022-07-29T11:32:21;5.60;;;2.75;;
14001;SDS011;7076;51.280;12.584;2022-07-29T11:37:25;5.22;;;2.75;;
14001;SDS011;7076;51.280;12.584;2022-07-29T11:42:40;2.40;;;2.20;;
14001;SDS011;7076;51.280;12.584;2022-07-29T11:47:49;5.50;;;2.40;;
14001;SDS011;7076;51.280;12.584;2022-07-29T11:52:54;6.72;;;3.10;;
14001;SDS011;7076;51.280;12.584;2022-07-29T11:57:59;6.60;;;2.83;;
14001;SDS011;7076;51.280;12.584;2022-07-29T12:03:05;6.65;;;2.83;;
14001;SDS011;7076;51.280;12.584;2022-07-29T12:08:10;6.38;;;2.70;;
14001;SDS011;7076;51.280;12.584;2022-07-29T12:13:17;2.38;;;2.17;;
14001;SDS011;7076;51.280;12.584;2022-07-29T12:18:22;6.50;;;2.75;;
14001;SDS011;7076;51.280;12.584;2022-07-29T12:23:25;4.07;;;2.45;;
14001;SDS011;7076;51.280;12.584;2022-07-29T12:28:37;2.88;;;2.20;;
14001;SDS011;7076;51.280;12.584;2022-07-29T12:33:40;3.75;;;2.20;;
14001;SDS011;7076;51.280;12.584;2022-07-29T12:38:43;6.18;;;2.33;;
14001;SDS011;7076;51.280;12.584;2022-07-29T12:43:54;2.92;;;2.25;;
14001;SDS011;7076;51.280;12.584;2022-07-29T12:48:57;6.25;;;2.92;;
14001;SDS011;7076;51.280;12.584;2022-07-29T12:54:02;4.10;;;2.45;;
14001;SDS011;7076;51.280;12.584;2022-07-29T12:59:17;3.63;;;2.25;;
14001;SDS011;7076;51.280;12.584;2022-07-29T13:04:24;5.95;;;2.63;;
14001;SDS011;7076;51.280;12.584;2022-07-29T13:09:36;5.53;;;2.60;;
14001;SDS011;7076;51.280;12.584;2022-07-29T13:14:42;5.18;;;2.70;;
14001;SDS011;7076;51.280;12.584;2022-07-29T13:19:46;3.45;;;2.33;;
14001;SDS011;7076;51.280;12.584;2022-07-29T13:24:51;4.55;;;2.05;;
14001;SDS011;7076;51.280;12.584;2022-07-29T13:29:57;2.60;;;2.33;;
14001;SDS011;7076;51.280;12.584;2022-07-29T13:35:02;3.47;;;2.50;;
14001;SDS011;7076;51.280;12.584;2022-07-29T13:40:07;3.22;;;2.55;;
14001;SDS011;7076;51.280;12.584;2022-07-29T13:45:12;4.32;;;2.30;;
14001;SDS011;7076;51.280;12.584;2022-07-29T13:50:15;3.95;;;2.50;;
14001;SDS011;7076;51.280;12.584;2022-07-29T13:55:18;3.30;;;2.38;;
14001;SDS011;7076;51.280;12.584;2022-07-29T14:00:22;2.95;;;2.58;;
14001;SDS011;7076;51.280;12.584;2022-07-29T14:05:26;3.35;;;2.83;;
14001;SDS011;7076;51.280;12.584;2022-07-29T14:10:30;3.80;;;2.60;;
14001;SDS011;7076;51.280;12.584;2022-07-29T14:15:34;5.22;;;2.90;;
14001;SDS011;7076;51.280;12.584;2022-07-29T14:20:39;5.90;;;3.47;;
14001;SDS011;7076;51.280;12.584;2022-07-29T14:25:42;3.95;;;3.10;;
14001;SDS011;7076;51.280;12.584;2022-07-29T14:30:46;6.45;;;2.75;;
14001;SDS011;7076;51.280;12.584;2022-07-29T14:35:49;6.05;;;3.63;;
14001;SDS011;7076;51.280;12.584;2022-07-29T14:40:52;6.03;;;2.80;;
14001;SDS011;7076;51.280;12.584;2022-07-29T14:45:56;4.53;;;2.65;;
14001;SDS011;7076;51.280;12.584;2022-07-29T14:51:06;4.20;;;2.85;;
14001;SDS011;7076;51.280;12.584;2022-07-29T14:56:09;5.43;;;3.13;;
14001;SDS011;7076;51.280;12.584;2022-07-29T15:01:33;4.53;;;2.78;;
14001;SDS011;7076;51.280;12.584;2022-07-29T15:06:36;3.85;;;2.70;;
14001;SDS011;7076;51.280;12.584;2022-07-29T15:11:39;2.90;;;2.55;;
14001;SDS011;7076;51.280;12.584;2022-07-29T15:16:43;4.07;;;2.95;;
14001;SDS011;7076;51.280;12.584;2022-07-29T15:21:48;6.25;;;3.08;;
14001;SDS011;7076;51.280;12.584;2022-07-29T15:26:51;2.25;;;1.92;;
14001;SDS011;7076;51.280;12.584;2022-07-29T15:31:55;3.33;;;2.92;;
14001;SDS011;7076;51.280;12.584;2022-07-29T15:36:58;2.33;;;1.90;;
14001;SDS011;7076;51.280;12.584;2022-07-29T15:42:01;3.47;;;1.83;;
14001;SDS011;7076;51.280;12.584;2022-07-29T15:47:06;2.83;;;2.20;;
14001;SDS011;7076;51.280;12.584;2022-07-29T15:52:09;3.58;;;2.40;;
14001;SDS011;7076;51.280;12.584;2022-07-29T15:57:12;3.60;;;1.98;;
14001;SDS011;7076;51.280;12.584;2022-07-29T16:02:16;1.90;;;1.70;;
14001;SDS011;7076;51.280;12.584;2022-07-29T16:07:19;2.33;;;1.88;;
14001;SDS011;7076;51.280;12.584;2022-07-29T16:12:22;2.83;;;1.80;;
14001;SDS011;7076;51.280;12.584;2022-07-29T16:17:27;3.05;;;2.08;;
14001;SDS011;7076;51.280;12.584;2022-07-29T16:22:30;3.10;;;2.15;;
14001;SDS011;7076;51.280;12.584;2022-07-29T16:27:33;2.42;;;2.22;;
14001;SDS011;7076;51.280;12.584;2022-07-29T16:32:39;2.88;;;1.83;;
14001;SDS011;7076;51.280;12.584;2022-07-29T16:37:42;2.58;;;2.28;;
14001;SDS011;7076;51.280;12.584;2022-07-29T16:42:45;2.40;;;2.17;;
14001;SDS011;7076;51.280;12.584;2022-07-29T16:47:49;2.50;;;2.30;;
14001;SDS011;7076;51.280;12.584;2022-07-29T16:52:56;2.97;;;2.10;;
14001;SDS011;7076;51.280;12.584;2022-07-29T16:57:59;5.03;;;2.00;;
14001;SDS011;7076;51.280;12.584;2022-07-29T17:03:03;2.03;;;1.73;;
14001;SDS011;7076;51.280;12.584;2022-07-29T17:08:07;2.38;;;2.15;;
14001;SDS011;7076;51.280;12.584;2022-07-29T17:13:10;2.58;;;2.00;;
14001;SDS011;7076;51.280;12.584;2022-07-29T17:18:14;2.72;;;2.33;;
14001;SDS011;7076;51.280;12.584;2022-07-29T17:23:17;2.75;;;2.38;;
14001;SDS011;7076;51.280;12.584;2022-07-29T17:28:20;2.45;;;2.25;;
14001;SDS011;7076;51.280;12.584;2022-07-29T17:33:24;2.28;;;2.08;;
14001;SDS011;7076;51.280;12.584;2022-07-29T17:38:26;3.63;;;2.10;;
14001;SDS011;7076;51.280;12.584;2022-07-29T17:43:29;2.13;;;1.92;;
14001;SDS011;7076;51.280;12.584;2022-07-29T17:48:33;1.85;;;1.73;;
14001;SDS011;7076;51.280;12.584;2022-07-29T17:53:36;2.13;;;1.75;;
14001;SDS011;7076;51.280;12.584;2022-07-29T17:58:39;4.18;;;2.10;;
14001;SDS011;7076;51.280;12.584;2022-07-29T18:03:43;3.15;;;1.85;;
14001;SDS011;7076;51.280;12.584;2022-07-29T18:08:47;1.85;;;1.63;;
14001;SDS011;7076;51.280;12.584;2022-07-29T18:13:49;6.45;;;1.92;;
14001;SDS011;7076;51.280;12.584;2022-07-29T18:18:54;4.78;;;2.00;;
14001;SDS011;7076;51.280;12.584;2022-07-29T18:23:57;5.15;;;1.92;;
14001;SDS011;7076;51.280;12.584;2022-07-29T18:28:59;4.53;;;2.00;;
14001;SDS011;7076;51.280;12.584;2022-07-29T18:34:03;3.00;;;1.77;;
14001;SDS011;7076;51.280;12.584;2022-07-29T18:39:06;3.30;;;1.80;;
14001;SDS011;7076;51.280;12.584;2022-07-29T18:44:13;3.60;;;1.95;;
14001;SDS011;7076;51.280;12.584;2022-07-29T18:49:19;2.25;;;1.98;;
14001;SDS011;7076;51.280;12.584;2022-07-29T18:54:21;2.08;;;1.88;;
14001;SDS011;7076;51.280;12.584;2022-07-29T18:59:25;2.25;;;2.00;;
14001;SDS011;7076;51.280;12.584;2022-07-29T19:04:29;2.42;;;1.98;;
14001;SDS011;7076;51.280;12.584;2022-07-29T19:09:32;2.65;;;2.03;;
14001;SDS011;7076;51.280;12.584;2022-07-29T19:14:49;2.97;;;2.10;;
14001;SDS011;7076;51.280;12.584;2022-07-29T19:19:58;2.20;;;1.90;;
14001;SDS011;7076;51.280;12.584;2022-07-29T19:25:05;2.83;;;2.10;;
14001;SDS011;7076;51.280;12.584;2022-07-29T19:30:11;3.72;;;2.90;;
14001;SDS011;7076;51.280;12.584;2022-07-29T19:35:18;5.22;;;3.85;;
14001;SDS011;7076;51.280;12.584;2022-07-29T19:40:28;4.60;;;3.20;;
14001;SDS011;7076;51.280;12.584;2022-07-29T19:45:32;3.33;;;2.60;;
14001;SDS011;7076;51.280;12.584;2022-07-29T19:50:37;4.80;;;2.70;;
14001;SDS011;7076;51.280;12.584;2022-07-29T19:55:43;2.90;;;2.30;;
14001;SDS011;7076;51.280;12.584;2022-07-29T20:00:46;5.43;;;2.55;;
14001;SDS011;7076;51.280;12.584;2022-07-29T20:05:50;3.38;;;2.40;;
14001;SDS011;7076;51.280;12.584;2022-07-29T20:10:53;4.93;;;2.63;;
14001;SDS011;7076;51.280;12.584;2022-07-29T20:15:56;3.10;;;2.40;;
14001;SDS011;7076;51.280;12.584;2022-07-29T20:21:00;6.55;;;2.33;;
14001;SDS011;7076;51.280;12.584;2022-07-29T20:26:05;2.90;;;2.08;;
14001;SDS011;7076;51.280;12.584;2022-07-29T20:31:10;2.05;;;1.83;;
14001;SDS011;7076;51.280;12.584;2022-07-29T20:36:19;2.40;;;2.20;;
14001;SDS011;7076;51.280;12.584;2022-07-29T20:41:22;3.83;;;2.15;;
14001;SDS011;7076;51.280;12.584;2022-07-29T20:46:25;3.03;;;2.22;;
14001;SDS011;7076;51.280;12.584;2022-07-29T20:51:29;4.22;;;2.22;;
14001;SDS011;7076;51.280;12.584;2022-07-29T20:56:43;3.17;;;2.33;;
14001;SDS011;7076;51.280;12.584;2022-07-29T21:01:46;3.17;;;2.30;;
14001;SDS011;7076;51.280;12.584;2022-07-29T21:06:50;2.88;;;2.58;;
14001;SDS011;7076;51.280;12.584;2022-07-29T21:11:55;3.75;;;2.85;;
14001;SDS011;7076;51.280;12.584;2022-07-29T21:17:00;2.28;;;1.83;;
14001;SDS011;7076;51.280;12.584;2022-07-29T21:22:07;4.30;;;2.03;;
14001;SDS011;7076;51.280;12.584;2022-07-29T21:27:10;2.05;;;1.85;;
14001;SDS011;7076;51.280;12.584;2022-07-29T21:32:30;3.17;;;1.45;;
14001;SDS011;7076;51.280;12.584;2022-07-29T21:37:34;3.40;;;2.10;;
14001;SDS011;7076;51.280;12.584;2022-07-29T21:42:37;6.35;;;2.20;;
14001;SDS011;7076;51.280;12.584;2022-07-29T21:47:40;1.60;;;1.50;;
14001;SDS011;7076;51.280;12.584;2022-07-29T21:52:44;1.77;;;1.67;;
14001;SDS011;7076;51.280;12.584;2022-07-29T21:57:47;3.90;;;2.40;;
14001;SDS011;7076;51.280;12.584;2022-07-29T22:02:50;3.38;;;2.10;;
14001;SDS011;7076;51.280;12.584;2022-07-29T22:07:55;2.30;;;2.10;;
14001;SDS011;7076;51.280;12.584;2022-07-29T22:12:58;3.05;;;2.00;;
14001;SDS011;7076;51.280;12.584;2022-07-29T22:18:01;2.75;;;1.83;;
14001;SDS011;7076;51.280;12.584;2022-07-29T22:23:06;4.85;;;2.35;;
14001;SDS011;7076;51.280;12.584;2022-07-29T22:28:08;2.35;;;2.15;;
14001;SDS011;7076;51.280;12.584;2022-07-29T22:33:11;3.75;;;2.38;;
14001;SDS011;7076;51.280;12.584;2022-07-29T22:38:19;2.55;;;2.30;;
14001;SDS011;7076;51.280;12.584;2022-07-29T22:43:22;4.00;;;2.08;;
14001;SDS011;7076;51.280;12.584;2022-07-29T22:48:25;2.30;;;1.98;;
14001;SDS011;7076;51.280;12.584;2022-07-29T22:53:29;3.28;;;2.63;;
14001;SDS011;7076;51.280;12.584;2022-07-29T22:58:32;3.85;;;2.20;;
14001;SDS011;7076;51.280;12.584;2022-07-29T23:03:35;2.25;;;1.92;;
14001;SDS011;7076;51.280;12.584;2022-07-29T23:08:40;6.38;;;2.22;;
14001;SDS011;7076;51.280;12.584;2022-07-29T23:13:43;3.08;;;2.20;;
14001;SDS011;7076;51.280;12.584;2022-07-29T23:18:46;3.67;;;2.20;;
14001;SDS011;7076;51.280;12.584;2022-07-29T23:23:53;2.25;;;2.05;;
14001;SDS011;7076;51.280;12.584;2022-07-29T23:28:56;3.97;;;1.85;;
14001;SDS011;7076;51.280;12.584;2022-07-29T23:33:59;9.80;;;2.25;;
14001;SDS011;7076;51.280;12.584;2022-07-29T23:39:03;4.32;;;2.28;;
14001;SDS011;7076;51.280;12.584;2022-07-29T23:44:06;2.33;;;2.13;;
14001;SDS011;7076;51.280;12.584;2022-07-29T23:49:09;2.67;;;2.47;;
14001;SDS011;7076;51.280;12.584;2022-07-29T23:54:13;3.13;;;2.15;;
14001;SDS011;7076;51.280;12.584;2022-07-29T23:59:15;3.55;;;2.53;;
